Time;durP1;ratioP1;P1;durP2;ratioP2;P2;SDS_P1;SDS_P2;PMS_P1;PMS_P2;Temp;Humidity;BMP_temperature;BMP_pressure;BME280_temperature;BME280_humidity;BME280_pressure;Samples;Min_cycle;Max_cycle;Signal;HPM_P1;HPM_P2
2022/05/29 00:07:52;;;;;;;6.40;3.20;;;;;;;7.22;73.05;99042.54;431154;1271;143402;-53
2022/05/29 00:17:55;;;;;;;4.30;2.40;;;;;;;7.35;73.14;99039.86;430710;1271;142398;-52
2022/05/29 00:27:58;;;;;;;3.50;2.50;;;;;;;7.22;73.17;99038.15;431125;1270;142147;-52
2022/05/29 00:38:01;;;;;;;4.80;2.90;;;;;;;7.11;73.77;99031.33;431701;1271;141424;-53
2022/05/29 00:48:07;;;;;;;3.90;2.10;;;;;;;7.03;73.97;99027.08;431474;1271;141512;-52
2022/05/29 00:58:11;;;;;;;4.50;2.00;;;;;;;6.95;74.27;99022.11;430670;1271;141403;-52
2022/05/29 01:08:20;;;;;;;2.70;2.40;;;;;;;6.78;74.77;99021.02;430216;1271;141784;-50
2022/05/29 01:18:33;;;;;;;4.30;2.40;;;;;;;6.57;75.22;99018.58;430830;1271;141233;-48
2022/05/29 01:28:51;;;;;;;3.70;2.30;;;;;;;6.36;75.75;99008.57;430835;1271;140651;-51
2022/05/29 01:39:00;;;;;;;8.40;4.10;;;;;;;6.27;76.05;99012.88;432466;1271;141076;-49
2022/05/29 01:49:13;;;;;;;4.80;3.20;;;;;;;6.31;76.72;99013.39;432388;1271;143329;-53
2022/05/29 01:59:21;;;;;;;4.60;2.60;;;;;;;6.60;77.02;99015.96;430724;1271;145520;-50
2022/05/29 02:09:32;;;;;;;3.10;2.40;;;;;;;6.90;77.09;99022.42;432664;1270;141470;-49
2022/05/29 02:19:44;;;;;;;5.00;2.00;;;;;;;7.11;76.82;99018.60;431661;1271;148448;-51
2022/05/29 02:29:47;;;;;;;4.20;3.00;;;;;;;7.11;76.58;99024.02;432565;1271;141273;-52
2022/05/29 02:39:59;;;;;;;5.20;3.10;;;;;;;7.02;76.58;99019.67;438393;1269;146687;-51
2022/05/29 02:50:23;;;;;;;4.90;2.50;;;;;;;6.91;76.81;99022.39;433131;1270;141854;-51
2022/05/29 03:00:30;;;;;;;4.50;2.90;;;;;;;6.78;76.76;99027.13;431729;1271;142015;-49
2022/05/29 03:10:42;;;;;;;6.80;2.90;;;;;;;6.63;77.03;99030.21;431019;1270;141084;-53
2022/05/29 03:20:57;;;;;;;5.90;2.40;;;;;;;7.57;77.80;99037.95;430941;1270;141586;-52
2022/05/29 03:31:04;;;;;;;2.40;1.90;;;;;;;8.71;75.32;99048.06;435628;1270;141518;-54
2022/05/29 03:41:13;;;;;;;4.70;2.90;;;;;;;8.69;74.18;99051.52;436377;1270;141761;-52
2022/05/29 03:51:16;;;;;;;3.30;2.80;;;;;;;8.86;73.74;99048.11;439046;1271;142196;-51
2022/05/29 04:01:21;;;;;;;6.70;2.20;;;;;;;9.47;73.66;99046.15;433110;1269;140921;-50
2022/05/29 04:21:48;;;;;;;4.90;1.60;;;;;;;22.40;59.23;99034.20;432272;1271;142088;-52
2022/05/29 04:42:13;;;;;;;3.40;1.50;;;;;;;29.77;44.00;99028.45;431694;1270;141733;-53
2022/05/29 04:52:16;;;;;;;3.90;1.60;;;;;;;31.54;38.56;99032.66;431733;1270;140939;-53
2022/05/29 05:02:19;;;;;;;3.00;1.50;;;;;;;33.22;34.95;99032.62;431224;1271;141034;-52
2022/05/29 05:12:22;;;;;;;7.70;1.30;;;;;;;35.56;31.72;99034.02;430899;1271;142005;-55
2022/05/29 05:22:26;;;;;;;2.60;1.20;;;;;;;36.98;28.74;99032.23;431672;1271;140656;-55
2022/05/29 05:32:29;;;;;;;3.30;1.40;;;;;;;38.15;26.34;99041.89;431006;1270;180713;-55
2022/05/29 05:42:32;;;;;;;5.00;1.50;;;;;;;34.17;26.07;99047.23;431048;1271;141019;-55
2022/05/29 05:52:35;;;;;;;5.70;2.40;;;;;;;36.12;25.47;99045.39;431387;1270;140700;-56
2022/05/29 06:02:41;;;;;;;4.00;1.80;;;;;;;39.80;23.52;99045.58;431585;1271;141509;-58
2022/05/29 06:12:44;;;;;;;2.60;1.60;;;;;;;42.84;21.16;99046.77;430800;1271;141031;-55
2022/05/29 06:22:47;;;;;;;3.70;2.10;;;;;;;43.45;19.48;99043.04;430921;1270;145064;-56
2022/05/29 06:32:50;;;;;;;2.90;1.30;;;;;;;43.48;18.77;99044.37;431760;1270;142734;-56
2022/05/29 06:42:53;;;;;;;3.90;1.80;;;;;;;44.98;17.39;99045.77;431533;1270;141259;-56
2022/05/29 06:52:57;;;;;;;5.10;1.50;;;;;;;39.38;17.94;99041.89;431293;1270;140754;-55
2022/05/29 07:13:23;;;;;;;4.00;1.50;;;;;;;32.41;21.23;99064.59;433105;1271;146173;-55
2022/05/29 07:23:26;;;;;;;3.60;1.70;;;;;;;26.03;25.38;99082.08;431418;1271;140730;-55
2022/05/29 07:33:30;;;;;;;5.00;1.70;;;;;;;31.82;24.75;99088.32;431313;1271;144766;-55
2022/05/29 07:43:33;;;;;;;5.60;1.60;;;;;;;32.10;22.26;99084.04;440466;1270;146759;-56
2022/05/29 07:53:36;;;;;;;3.90;1.40;;;;;;;33.25;21.81;99092.26;446655;1271;142190;-55
2022/05/29 08:03:40;;;;;;;5.00;1.20;;;;;;;29.04;23.75;99087.77;433145;1270;152700;-52
2022/05/29 08:13:43;;;;;;;1.90;0.80;;;;;;;26.11;25.84;99092.15;433674;1270;145578;-53
2022/05/29 08:34:05;;;;;;;5.30;1.40;;;;;;;21.63;29.93;99096.64;430257;1270;341275;-52
2022/05/29 08:44:13;;;;;;;3.80;1.50;;;;;;;20.18;31.37;99104.66;431377;1270;142551;-55
2022/05/29 08:54:26;;;;;;;3.30;1.30;;;;;;;19.28;33.18;99113.83;431229;1271;141987;-53
2022/05/29 09:04:45;;;;;;;4.00;0.90;;;;;;;19.79;33.90;99110.30;431186;1271;195350;-58
2022/05/29 09:14:52;;;;;;;2.40;0.90;;;;;;;20.36;33.78;99112.07;432628;1270;146546;-51
2022/05/29 09:25:00;;;;;;;2.20;0.60;;;;;;;20.20;33.68;99112.23;431537;1270;141157;-55
2022/05/29 09:35:11;;;;;;;9.00;1.60;;;;;;;19.58;33.81;99113.44;432530;1270;144805;-53
2022/05/29 09:45:25;;;;;;;3.70;1.70;;;;;;;18.93;35.09;99116.89;432041;1271;140146;-57
2022/05/29 09:55:32;;;;;;;2.20;0.80;;;;;;;18.24;35.46;99117.65;433952;1271;141337;-56
2022/05/29 10:05:39;;;;;;;4.00;0.80;;;;;;;18.01;36.26;99124.60;432510;1270;141447;-54
2022/05/29 10:15:42;;;;;;;2.10;1.00;;;;;;;18.62;36.85;99121.22;430618;1270;142959;-54
2022/05/29 10:25:58;;;;;;;4.60;1.70;;;;;;;19.29;36.14;99110.92;430119;1270;140878;-56
2022/05/29 10:36:14;;;;;;;3.80;0.70;;;;;;;19.73;35.10;99109.21;431264;1270;143039;-53
2022/05/29 10:46:19;;;;;;;3.30;1.00;;;;;;;20.09;34.04;99099.23;430416;1270;140895;-57
2022/05/29 10:56:33;;;;;;;1.50;0.70;;;;;;;20.45;33.32;99089.02;430466;1270;142120;-54
2022/05/29 11:06:55;;;;;;;2.40;0.90;;;;;;;20.99;32.74;99082.48;431338;1270;143174;-54
2022/05/29 11:17:06;;;;;;;1.40;0.60;;;;;;;21.34;32.17;99074.41;429869;1271;141335;-55
2022/05/29 11:27:27;;;;;;;2.50;0.90;;;;;;;21.47;31.87;99076.45;431465;1270;140912;-53
2022/05/29 11:37:56;;;;;;;1.90;0.60;;;;;;;21.64;31.81;99071.87;430770;1270;143184;-57
2022/05/29 11:58:30;;;;;;;8.50;2.20;;;;;;;21.47;31.93;99065.06;432599;1270;141281;-55
2022/05/29 12:08:42;;;;;;;4.90;1.40;;;;;;;20.39;32.87;99069.16;430013;1271;141869;-55
2022/05/29 12:18:50;;;;;;;3.50;1.20;;;;;;;19.25;34.30;99069.88;431316;1271;140868;-53
2022/05/29 12:29:00;;;;;;;3.10;1.00;;;;;;;19.34;34.77;99072.89;432046;1270;146876;-52
2022/05/29 12:39:11;;;;;;;4.20;1.30;;;;;;;19.68;33.91;99075.60;431990;1270;145090;-54
2022/05/29 12:49:43;;;;;;;4.10;0.50;;;;;;;19.55;33.83;99065.75;431175;1270;142571;-56
2022/05/29 13:00:19;;;;;;;2.30;1.50;;;;;;;19.52;34.34;99075.10;430842;1269;141997;-55
2022/05/29 13:10:28;;;;;;;1.60;0.70;;;;;;;19.33;34.35;99071.10;431290;1270;140803;-55
2022/05/29 13:20:51;;;;;;;1.50;0.80;;;;;;;19.43;34.31;99054.22;430523;1271;141309;-54
2022/05/29 13:31:07;;;;;;;3.10;1.40;;;;;;;19.68;33.98;99048.61;432563;1271;141942;-55
2022/05/29 13:41:26;;;;;;;3.60;1.20;;;;;;;19.36;34.23;99051.92;435568;1270;141764;-56
2022/05/29 13:51:35;;;;;;;2.70;1.20;;;;;;;19.16;34.13;99056.48;442393;1270;140913;-56
2022/05/29 14:12:49;;;;;;;4.80;1.10;;;;;;;18.81;34.52;99048.14;431963;1270;209002;-53
2022/05/29 14:23:21;;;;;;;9.70;4.00;;;;;;;18.90;34.75;99054.52;431458;1270;140413;-56
2022/05/29 14:33:39;;;;;;;8.50;1.80;;;;;;;19.04;35.02;99044.95;430835;1270;142235;-54
2022/05/29 14:43:43;;;;;;;6.10;4.00;;;;;;;19.04;35.17;99050.49;431093;1270;146466;-53
2022/05/29 14:53:55;;;;;;;3.10;2.10;;;;;;;19.08;35.11;99045.38;447751;1270;141140;-56
2022/05/29 15:03:59;;;;;;;2.30;0.90;;;;;;;19.30;35.25;99037.58;436275;1270;140989;-55
2022/05/29 15:14:04;;;;;;;2.70;1.80;;;;;;;18.96;35.20;99046.54;443662;1268;143171;-55
2022/05/29 15:24:23;;;;;;;0.70;0.60;;;;;;;18.71;35.53;99033.50;435963;1270;141062;-55
2022/05/29 15:34:45;;;;;;;4.00;1.20;;;;;;;18.32;35.34;99021.15;433983;1270;142163;-58
2022/05/29 15:45:17;;;;;;;2.90;0.80;;;;;;;18.41;35.75;99023.09;439717;1270;141019;-50
2022/05/29 15:55:29;;;;;;;2.20;1.20;;;;;;;18.26;35.66;99017.55;441086;1270;144160;-56
2022/05/29 16:05:36;;;;;;;3.40;1.10;;;;;;;17.89;35.94;99014.91;438368;1270;142014;-55
2022/05/29 16:15:56;;;;;;;6.70;1.30;;;;;;;17.42;36.45;99016.35;447768;1269;142284;-56
2022/05/29 16:26:08;;;;;;;3.90;0.90;;;;;;;17.30;37.24;99020.79;435074;1270;161174;-53
2022/05/29 16:36:26;;;;;;;8.30;1.10;;;;;;;17.17;37.86;99010.95;432685;1270;141544;-54
2022/05/29 16:57:14;;;;;;;3.70;1.30;;;;;;;16.57;38.67;98997.92;431607;1270;142934;-53
2022/05/29 17:07:24;;;;;;;3.00;1.00;;;;;;;16.17;39.67;98998.05;431672;1271;141419;-53
2022/05/29 17:17:28;;;;;;;2.40;1.50;;;;;;;15.78;40.38;98990.28;431806;1270;140445;-52
2022/05/29 17:27:42;;;;;;;4.70;1.60;;;;;;;15.32;40.42;98986.16;431228;1271;142023;-54
2022/05/29 17:38:01;;;;;;;6.40;1.70;;;;;;;14.99;42.12;98988.14;433230;1270;141071;-53
2022/05/29 17:48:15;;;;;;;4.50;2.30;;;;;;;14.75;42.48;98986.20;434462;1270;140593;-60
2022/05/29 17:58:18;;;;;;;9.30;4.90;;;;;;;14.51;42.67;99003.59;432882;1271;141044;-53
2022/05/29 18:08:21;;;;;;;11.20;5.20;;;;;;;14.27;43.33;99011.58;432734;1270;140620;-52
2022/05/29 18:18:25;;;;;;;13.00;8.20;;;;;;;14.01;45.37;99010.00;433533;1270;140478;-53
2022/05/29 18:28:29;;;;;;;14.20;6.10;;;;;;;13.75;47.40;99019.77;431884;1271;140169;-54
2022/05/29 18:38:32;;;;;;;12.40;9.40;;;;;;;13.43;48.86;99023.71;439286;1271;141638;-54
2022/05/29 18:48:35;;;;;;;12.10;7.20;;;;;;;12.94;50.09;99023.17;435790;1270;141093;-53
2022/05/29 18:58:39;;;;;;;27.30;8.20;;;;;;;12.58;51.32;99021.55;445270;1268;141692;-56
2022/05/29 19:08:43;;;;;;;14.40;6.40;;;;;;;12.29;52.61;99027.22;447694;1270;142100;-56
2022/05/29 19:18:48;;;;;;;14.50;8.00;;;;;;;11.89;54.54;99029.45;447680;1270;140830;-54
2022/05/29 19:28:52;;;;;;;14.40;6.60;;;;;;;11.46;56.30;99029.04;435912;1271;143449;-54
2022/05/29 19:38:55;;;;;;;18.00;9.70;;;;;;;11.15;57.45;99023.13;431383;1271;145254;-53
2022/05/29 19:49:01;;;;;;;28.90;9.10;;;;;;;10.89;58.53;99023.63;430665;1271;145706;-56
2022/05/29 19:59:04;;;;;;;65.30;22.60;;;;;;;10.64;59.41;99024.80;430894;1271;146986;-54
2022/05/29 20:09:10;;;;;;;25.40;11.50;;;;;;;10.48;59.98;99018.77;430806;1271;144727;-52
2022/05/29 20:19:13;;;;;;;34.00;19.40;;;;;;;10.34;60.79;99020.77;431115;1271;142120;-54
2022/05/29 20:29:17;;;;;;;35.70;21.20;;;;;;;10.13;61.27;99019.10;430749;1270;660513;-54
2022/05/29 20:39:21;;;;;;;33.70;24.80;;;;;;;9.95;62.03;99013.02;430735;1271;140899;-54
2022/05/29 20:49:24;;;;;;;32.80;20.60;;;;;;;9.83;62.68;99013.50;430774;1271;141489;-56
2022/05/29 20:59:28;;;;;;;34.30;15.90;;;;;;;9.78;63.44;99011.92;429897;1271;142074;-53
2022/05/29 21:09:32;;;;;;;26.40;17.50;;;;;;;9.81;63.89;99004.74;431068;1270;141722;-57
2022/05/29 21:19:36;;;;;;;19.50;9.00;;;;;;;9.94;63.70;99002.46;431233;1271;141742;-57
2022/05/29 21:29:39;;;;;;;16.70;10.10;;;;;;;10.15;62.92;99007.83;431555;1271;141477;-54
2022/05/29 21:39:42;;;;;;;26.00;9.90;;;;;;;10.29;63.53;99004.54;431745;1271;142349;-55
2022/05/29 21:49:45;;;;;;;29.10;10.60;;;;;;;10.35;64.25;98996.04;430717;1270;142582;-57
2022/05/29 21:59:49;;;;;;;14.10;8.40;;;;;;;10.41;62.89;98995.29;431159;1271;141743;-53
2022/05/29 22:09:52;;;;;;;7.90;5.70;;;;;;;10.54;61.92;98988.98;444213;1270;141860;-53
2022/05/29 22:20:00;;;;;;;19.00;11.20;;;;;;;10.59;61.80;98990.50;433057;1270;145446;-51
2022/05/29 22:30:04;;;;;;;10.20;6.10;;;;;;;10.56;63.16;98977.23;432258;1270;141048;-51
2022/05/29 22:40:11;;;;;;;7.50;4.10;;;;;;;10.47;63.15;98958.84;432350;1270;141962;-50
2022/05/29 22:50:25;;;;;;;10.60;7.30;;;;;;;10.42;62.34;98951.14;431657;1270;145420;-54
2022/05/29 23:00:31;;;;;;;11.10;7.20;;;;;;;10.39;63.65;98948.52;431368;1270;141555;-53
2022/05/29 23:10:35;;;;;;;9.70;6.70;;;;;;;10.31;64.57;98957.16;431454;1270;143008;-56
2022/05/29 23:20:39;;;;;;;10.60;7.30;;;;;;;10.23;65.04;98950.20;431252;1270;145828;-56
2022/05/29 23:30:46;;;;;;;9.10;5.40;;;;;;;10.22;65.65;98956.58;432440;1270;141949;-59
2022/05/29 23:40:49;;;;;;;12.30;6.10;;;;;;;10.16;65.80;98956.66;431112;1270;143191;-57
2022/05/29 23:50:53;;;;;;;9.30;5.30;;;;;;;10.12;66.03;98951.90;431271;1270;145398;-56
